Time;durP1;ratioP1;P1;durP2;ratioP2;P2;SDS_P1;SDS_P2;PMS_P1;PMS_P2;Temp;Humidity;BMP_temperature;BMP_pressure;BME280_temperature;BME280_humidity;BME280_pressure;Samples;Min_cycle;Max_cycle;Signal;HPM_P1;HPM_P2
2022/09/07 00:01:55;;;;;;;4.10;1.12;;;23.00;99.90;;;;;;1926579;74;21125;-81
2022/09/07 00:04:46;;;;;;;4.95;1.00;;;23.00;99.90;;;;;;1904446;74;21576;-78
2022/09/07 00:07:38;;;;;;;4.28;1.42;;;23.00;99.90;;;;;;1904473;74;21138;-77
2022/09/07 00:10:30;;;;;;;6.12;1.15;;;22.90;99.90;;;;;;1910159;74;21137;-77
2022/09/07 00:13:24;;;;;;;5.15;1.47;;;22.90;99.90;;;;;;1905178;74;21637;-77
2022/09/07 00:16:23;;;;;;;3.87;1.32;;;23.00;99.90;;;;;;1904302;74;21206;-77
2022/09/07 00:19:15;;;;;;;3.83;1.10;;;23.00;99.90;;;;;;1904417;74;21502;-77
2022/09/07 00:22:10;;;;;;;4.90;1.22;;;23.00;99.90;;;;;;1905600;74;21165;-77
2022/09/07 00:25:02;;;;;;;3.52;1.12;;;23.00;99.90;;;;;;1855847;77;21122;-77
2022/09/07 00:27:53;;;;;;;2.80;1.10;;;23.00;99.90;;;;;;1834607;77;21107;-79
2022/09/07 00:30:45;;;;;;;4.03;1.07;;;23.00;99.90;;;;;;1833613;77;21075;-78
2022/09/07 00:33:36;;;;;;;4.37;1.10;;;23.00;99.90;;;;;;1886714;75;21051;-78
2022/09/07 00:36:30;;;;;;;4.60;1.20;;;23.10;99.90;;;;;;1887917;75;21114;-78
2022/09/07 00:39:21;;;;;;;2.98;1.32;;;23.10;99.90;;;;;;1895416;75;21060;-78
2022/09/07 00:42:12;;;;;;;3.35;1.00;;;23.20;99.90;;;;;;1894671;75;21072;-83
2022/09/07 00:45:09;;;;;;;7.37;1.20;;;23.30;99.90;;;;;;1894188;75;21071;-82
2022/09/07 00:48:03;;;;;;;4.25;1.15;;;23.30;99.90;;;;;;1904309;75;21103;-81
2022/09/07 00:50:58;;;;;;;3.62;1.10;;;23.30;99.90;;;;;;1888363;75;21061;-82
2022/09/07 00:53:54;;;;;;;4.03;1.27;;;23.30;99.90;;;;;;1895867;75;21176;-82
2022/09/07 00:56:47;;;;;;;5.53;1.10;;;23.40;99.90;;;;;;1894817;75;21112;-83
2022/09/07 00:59:42;;;;;;;3.80;1.22;;;23.40;99.90;;;;;;1895088;75;21047;-82
2022/09/07 01:02:33;;;;;;;3.35;1.20;;;23.40;99.90;;;;;;1917093;75;21116;-82
2022/09/07 01:05:28;;;;;;;4.12;1.17;;;23.30;99.90;;;;;;1896151;75;21132;-84
2022/09/07 01:08:21;;;;;;;4.90;1.10;;;23.30;99.90;;;;;;1894383;75;21167;-81
2022/09/07 01:11:12;;;;;;;6.90;1.30;;;23.30;99.90;;;;;;1894497;75;21086;-83
2022/09/07 01:14:05;;;;;;;2.85;1.00;;;23.20;99.90;;;;;;1896438;73;21114;-86
2022/09/07 01:17:01;;;;;;;4.65;1.55;;;23.10;99.90;;;;;;1900898;75;21047;-83
2022/09/07 01:20:26;;;;;;;3.30;1.00;;;23.10;99.90;;;;;;1896636;75;21511;-83
2022/09/07 01:24:10;;;;;;;4.35;1.20;;;23.10;99.90;;;;;;1902060;75;21112;-85
2022/09/07 01:27:29;;;;;;;4.00;1.30;;;23.10;99.90;;;;;;1893410;75;21103;-85
2022/09/07 01:30:23;;;;;;;6.58;1.35;;;22.90;99.90;;;;;;1885701;75;21062;-85
2022/09/07 01:33:24;;;;;;;5.30;1.77;;;22.80;99.90;;;;;;1884115;76;21059;-84
2022/09/07 01:36:25;;;;;;;5.58;1.60;;;22.60;99.90;;;;;;1886562;75;21063;-84
2022/09/07 01:39:17;;;;;;;8.95;1.85;;;22.50;99.90;;;;;;1895925;75;21172;-85
2022/09/07 01:42:12;;;;;;;7.47;2.17;;;22.40;99.90;;;;;;1894976;75;21087;-84
2022/09/07 01:45:10;;;;;;;7.35;1.77;;;22.30;99.90;;;;;;1894944;75;21502;-83
2022/09/07 01:48:02;;;;;;;6.60;1.90;;;22.20;99.90;;;;;;1897332;75;21569;-82
2022/09/07 01:50:58;;;;;;;9.23;2.47;;;22.10;99.90;;;;;;1850596;77;21189;-81
2022/09/07 01:53:53;;;;;;;12.18;3.72;;;22.10;99.90;;;;;;1824971;77;21098;-81
2022/09/07 01:56:47;;;;;;;14.60;6.00;;;22.10;99.90;;;;;;1844931;77;21202;-81
2022/09/07 01:59:41;;;;;;;12.03;4.30;;;22.10;99.90;;;;;;1825448;77;21114;-81
2022/09/07 02:02:36;;;;;;;9.05;3.80;;;22.00;99.90;;;;;;1889659;75;21063;-80
2022/09/07 02:05:32;;;;;;;7.80;3.77;;;21.90;99.90;;;;;;1898200;75;21107;-80
2022/09/07 02:08:26;;;;;;;12.73;4.53;;;21.90;99.90;;;;;;1884678;75;21058;-82
2022/09/07 02:11:21;;;;;;;12.50;4.08;;;22.00;99.90;;;;;;1905869;75;21072;-83
2022/09/07 02:14:16;;;;;;;11.15;4.22;;;22.00;99.90;;;;;;1906177;75;21060;-81
2022/09/07 02:17:11;;;;;;;12.53;4.40;;;22.10;99.90;;;;;;1890389;75;21628;-77
2022/09/07 02:20:06;;;;;;;9.75;4.00;;;22.20;99.90;;;;;;1885999;75;21133;-76
2022/09/07 02:23:00;;;;;;;8.25;4.12;;;22.10;99.90;;;;;;1885140;75;21177;-76
2022/09/07 02:25:54;;;;;;;6.45;3.40;;;22.20;99.90;;;;;;1862329;76;21270;-80
2022/09/07 02:28:47;;;;;;;7.53;3.12;;;22.20;99.90;;;;;;1905899;75;21592;-83
2022/09/07 02:31:38;;;;;;;9.30;3.17;;;22.20;99.90;;;;;;1884412;76;21066;-85
2022/09/07 02:34:32;;;;;;;4.35;1.80;;;22.30;99.90;;;;;;1895292;75;21110;-85
2022/09/07 02:37:26;;;;;;;6.90;1.52;;;22.40;99.90;;;;;;1895104;75;21530;-83
2022/09/07 02:40:18;;;;;;;5.42;1.42;;;22.40;99.90;;;;;;1892703;75;21064;-79
2022/09/07 02:43:10;;;;;;;2.98;1.50;;;22.50;99.90;;;;;;1903214;75;21098;-82
2022/09/07 02:46:15;;;;;;;4.08;1.22;;;22.50;99.90;;;;;;1899984;75;21054;-82
2022/09/07 02:49:10;;;;;;;4.78;1.10;;;22.60;99.90;;;;;;1880384;76;21191;-82
2022/09/07 02:52:06;;;;;;;4.87;1.30;;;22.50;99.90;;;;;;1905053;75;21174;-82
2022/09/07 02:55:03;;;;;;;4.28;1.10;;;22.50;99.90;;;;;;1873199;76;21035;-82
2022/09/07 02:58:00;;;;;;;4.22;1.10;;;22.50;99.90;;;;;;1895085;75;21181;-82
2022/09/07 03:00:55;;;;;;;4.37;1.25;;;22.40;99.90;;;;;;1899253;75;21124;-82
2022/09/07 03:03:50;;;;;;;6.37;1.67;;;22.30;99.90;;;;;;1887036;75;21047;-81
2022/09/07 03:06:45;;;;;;;3.65;1.75;;;22.30;99.90;;;;;;1893048;75;21197;-77
2022/09/07 03:09:39;;;;;;;6.22;1.90;;;22.30;99.90;;;;;;1888727;75;21161;-81
2022/09/07 03:12:43;;;;;;;3.22;1.42;;;22.30;99.90;;;;;;1906137;75;21106;-80
2022/09/07 03:15:34;;;;;;;7.50;1.50;;;22.30;99.90;;;;;;1903490;75;21115;-80
2022/09/07 03:18:28;;;;;;;6.58;1.55;;;22.30;99.90;;;;;;1897641;75;21055;-80
2022/09/07 03:21:19;;;;;;;3.72;1.87;;;22.30;99.90;;;;;;1894790;75;21094;-80
2022/09/07 03:24:11;;;;;;;6.60;1.75;;;22.30;99.90;;;;;;1895251;75;21102;-79
2022/09/07 03:27:02;;;;;;;3.62;2.00;;;22.30;99.90;;;;;;1891314;75;21080;-79
2022/09/07 03:29:54;;;;;;;6.78;1.70;;;22.20;99.90;;;;;;1836928;78;21144;-80
2022/09/07 03:32:46;;;;;;;5.25;1.60;;;22.10;99.90;;;;;;1845400;77;21156;-80
2022/09/07 03:35:37;;;;;;;3.80;1.20;;;22.10;99.90;;;;;;1845107;77;21134;-80
2022/09/07 03:38:29;;;;;;;3.87;1.45;;;22.10;99.90;;;;;;1823914;79;21748;-80
2022/09/07 03:41:21;;;;;;;5.28;1.10;;;22.10;99.90;;;;;;1836583;77;21075;-84
2022/09/07 03:44:12;;;;;;;3.17;1.35;;;22.10;99.90;;;;;;1872262;75;21113;-81
2022/09/07 03:47:04;;;;;;;3.60;1.10;;;22.10;99.90;;;;;;1881486;76;21083;-84
2022/09/07 03:49:56;;;;;;;3.65;1.10;;;22.00;99.90;;;;;;1902643;75;21125;-85
2022/09/07 03:52:47;;;;;;;3.87;1.00;;;22.00;99.90;;;;;;1872347;77;21063;-85
2022/09/07 03:55:39;;;;;;;5.47;1.10;;;22.00;99.90;;;;;;1885530;75;21040;-76
2022/09/07 03:58:32;;;;;;;4.53;1.27;;;22.00;99.90;;;;;;1882736;75;21115;-81
2022/09/07 04:01:25;;;;;;;3.72;1.20;;;22.00;99.90;;;;;;1882899;75;21333;-81
2022/09/07 04:04:17;;;;;;;2.72;1.30;;;21.90;99.90;;;;;;1884265;75;21111;-78
2022/09/07 04:07:09;;;;;;;3.35;1.00;;;21.80;99.90;;;;;;1850771;77;21101;-77
2022/09/07 04:10:00;;;;;;;4.53;1.17;;;21.80;99.90;;;;;;1824347;77;21122;-81
2022/09/07 04:12:52;;;;;;;9.35;1.70;;;21.80;99.90;;;;;;1845411;77;21903;-80
2022/09/07 04:15:44;;;;;;;3.37;1.20;;;21.80;99.90;;;;;;1841595;77;21071;-80
2022/09/07 04:18:37;;;;;;;3.10;1.17;;;21.80;99.90;;;;;;1824075;77;21208;-80
2022/09/07 04:21:30;;;;;;;4.92;1.00;;;21.80;99.90;;;;;;1824414;77;21128;-80
2022/09/07 04:24:22;;;;;;;4.97;1.40;;;21.80;99.90;;;;;;1840535;77;21265;-80
2022/09/07 04:27:13;;;;;;;6.05;1.30;;;21.80;99.90;;;;;;1843180;77;21098;-81
2022/09/07 04:30:05;;;;;;;4.35;1.45;;;21.70;99.90;;;;;;1897306;76;21133;-81
2022/09/07 04:32:57;;;;;;;2.80;1.17;;;21.70;99.90;;;;;;1910531;74;21055;-81
2022/09/07 04:38:51;;;;;;;2.33;1.20;;;21.70;99.90;;;;;;1949201;72;22305;-80
2022/09/07 04:41:43;;;;;;;3.05;1.70;;;21.70;99.90;;;;;;1906846;75;21588;-79
2022/09/07 04:44:34;;;;;;;2.67;1.10;;;21.70;99.90;;;;;;1901890;75;21052;-79
2022/09/07 04:47:29;;;;;;;2.60;1.50;;;21.60;99.90;;;;;;1884731;76;21135;-81
2022/09/07 04:50:20;;;;;;;3.25;1.30;;;21.60;99.90;;;;;;1906780;75;21121;-81
2022/09/07 04:53:13;;;;;;;6.42;1.32;;;21.50;99.90;;;;;;1906844;75;21105;-81
2022/09/07 04:56:05;;;;;;;5.50;1.17;;;21.50;99.90;;;;;;1884706;76;21585;-81
2022/09/07 04:58:56;;;;;;;6.75;1.37;;;21.50;99.90;;;;;;1899256;75;21584;-81
2022/09/07 05:01:48;;;;;;;5.50;1.35;;;21.40;99.90;;;;;;1895428;75;21052;-81
2022/09/07 05:04:40;;;;;;;4.05;1.32;;;21.40;99.90;;;;;;1895734;75;21070;-83
2022/09/07 05:07:31;;;;;;;6.17;1.40;;;21.40;99.90;;;;;;1897362;75;21112;-83
2022/09/07 05:10:23;;;;;;;3.95;1.15;;;21.30;99.90;;;;;;1878322;76;21079;-85
2022/09/07 05:13:15;;;;;;;5.60;1.52;;;21.30;99.90;;;;;;1905887;75;21583;-84
2022/09/07 05:16:10;;;;;;;5.65;1.60;;;21.30;99.90;;;;;;1884070;76;21057;-83
2022/09/07 05:19:04;;;;;;;4.28;1.50;;;21.30;99.90;;;;;;1905664;75;21055;-83
2022/09/07 05:21:58;;;;;;;3.67;1.30;;;21.30;99.90;;;;;;1902490;75;21494;-83
2022/09/07 05:24:49;;;;;;;4.35;1.67;;;21.30;99.90;;;;;;1904720;75;21126;-81
2022/09/07 05:27:41;;;;;;;5.78;1.50;;;21.30;99.90;;;;;;1894963;75;21295;-81
2022/09/07 05:30:33;;;;;;;7.37;1.75;;;21.40;99.90;;;;;;1906826;75;21076;-81
2022/09/07 05:33:26;;;;;;;2.83;1.32;;;21.40;99.90;;;;;;1904705;75;21063;-85
2022/09/07 05:36:20;;;;;;;6.55;2.00;;;21.40;99.90;;;;;;1899460;75;21132;-84
2022/09/07 05:39:12;;;;;;;4.70;2.00;;;21.30;99.90;;;;;;1894951;75;21121;-84
2022/09/07 05:42:04;;;;;;;4.12;1.57;;;21.40;99.90;;;;;;1895730;75;21146;-85
2022/09/07 05:44:57;;;;;;;4.03;1.60;;;21.40;99.90;;;;;;1883642;75;21224;-86
2022/09/07 05:47:50;;;;;;;6.37;1.87;;;21.40;99.90;;;;;;1890020;75;21128;-86
2022/09/07 05:50:51;;;;;;;5.83;1.47;;;21.40;99.90;;;;;;1896595;75;21138;-84
2022/09/07 05:53:46;;;;;;;5.30;1.75;;;21.40;99.90;;;;;;1907872;75;21172;-85
2022/09/07 05:56:37;;;;;;;4.85;1.52;;;21.40;99.90;;;;;;1876505;75;21235;-85
2022/09/07 05:59:28;;;;;;;5.22;1.70;;;21.50;99.90;;;;;;1892235;74;21088;-84
2022/09/07 06:02:20;;;;;;;4.95;1.62;;;21.50;99.90;;;;;;1904655;73;21117;-82
2022/09/07 06:05:11;;;;;;;4.12;1.57;;;21.50;99.90;;;;;;1888763;74;21209;-82
2022/09/07 06:08:04;;;;;;;3.77;1.32;;;21.50;99.90;;;;;;1876963;75;21063;-80
2022/09/07 06:10:55;;;;;;;4.90;1.80;;;21.60;99.90;;;;;;1873765;75;21104;-78
2022/09/07 06:13:47;;;;;;;3.75;1.55;;;21.70;99.90;;;;;;1878165;75;21139;-72
2022/09/07 06:16:39;;;;;;;3.75;1.40;;;21.70;99.90;;;;;;1915559;74;21099;-90
2022/09/07 06:19:30;;;;;;;3.22;1.35;;;21.70;99.90;;;;;;1883471;75;21056;-88
2022/09/07 06:22:22;;;;;;;4.62;1.60;;;21.70;99.90;;;;;;1905894;75;21372;-78
2022/09/07 06:27:55;;;;;;;4.03;1.40;;;21.70;99.90;;;;;;1952365;72;22213;-76
2022/09/07 06:33:30;;;;;;;3.98;1.82;;;21.80;99.90;;;;;;1954056;72;22586;-84
2022/09/07 06:36:22;;;;;;;3.62;1.70;;;21.90;99.90;;;;;;1889167;75;21111;-77
2022/09/07 06:39:13;;;;;;;5.50;1.50;;;21.90;99.90;;;;;;1895647;75;21527;-77
2022/09/07 06:44:46;;;;;;;4.40;1.60;;;22.00;99.90;;;;;;1943703;72;22260;-78
2022/09/07 06:47:37;;;;;;;6.90;2.35;;;22.00;99.90;;;;;;1896108;75;21138;-77
2022/09/07 06:50:28;;;;;;;5.62;2.12;;;22.00;99.90;;;;;;1916615;75;21114;-78
2022/09/07 06:53:20;;;;;;;6.72;2.67;;;22.10;99.90;;;;;;1916929;75;21120;-76
2022/09/07 06:56:16;;;;;;;5.03;1.90;;;22.10;99.90;;;;;;1912117;75;21090;-88
2022/09/07 06:59:07;;;;;;;7.30;2.60;;;22.10;99.90;;;;;;1901092;75;21143;-73
2022/09/07 07:01:59;;;;;;;7.00;2.02;;;22.10;99.90;;;;;;1896051;75;21169;-72
2022/09/07 07:04:51;;;;;;;5.35;1.90;;;22.20;99.90;;;;;;1917083;75;21048;-75
2022/09/07 07:07:42;;;;;;;6.22;2.22;;;22.30;99.90;;;;;;1911815;75;21262;-73
2022/09/07 07:10:38;;;;;;;4.15;1.70;;;22.30;99.90;;;;;;1900735;75;21048;-73
2022/09/07 07:13:30;;;;;;;4.12;1.90;;;22.30;99.90;;;;;;1897921;75;21129;-74
2022/09/07 07:16:22;;;;;;;5.67;1.85;;;22.40;99.90;;;;;;1912629;75;21051;-73
2022/09/07 07:19:14;;;;;;;6.80;1.67;;;22.50;99.90;;;;;;1916345;75;21032;-73
2022/09/07 07:22:05;;;;;;;7.92;2.10;;;22.60;99.90;;;;;;1916327;75;21120;-73
2022/09/07 07:27:39;;;;;;;5.45;1.75;;;22.80;99.90;;;;;;1941116;72;22217;-73
2022/09/07 07:30:31;;;;;;;5.35;1.82;;;22.80;99.90;;;;;;1884761;76;21227;-73
2022/09/07 07:33:22;;;;;;;6.97;2.47;;;22.80;99.90;;;;;;1902782;75;21604;-72
2022/09/07 07:36:15;;;;;;;10.88;2.55;;;22.90;99.90;;;;;;1897153;75;21028;-72
2022/09/07 07:39:06;;;;;;;5.87;3.35;;;22.90;99.90;;;;;;1895364;75;21124;-82
2022/09/07 07:41:58;;;;;;;6.90;2.90;;;23.00;99.90;;;;;;1895911;75;21091;-74
2022/09/07 07:44:51;;;;;;;10.68;3.22;;;23.10;99.90;;;;;;1897889;75;21157;-71
2022/09/07 07:47:46;;;;;;;6.42;1.98;;;23.10;99.90;;;;;;1903028;73;21129;-78
2022/09/07 07:50:37;;;;;;;6.62;1.60;;;23.10;99.90;;;;;;1892278;75;21062;-72
2022/09/07 07:53:30;;;;;;;6.65;1.85;;;23.00;99.90;;;;;;1903192;75;21487;-74
2022/09/07 07:56:23;;;;;;;4.05;1.50;;;23.00;99.90;;;;;;1907752;75;21125;-74
2022/09/07 07:59:15;;;;;;;3.85;1.50;;;23.10;99.90;;;;;;1902416;75;21113;-74
2022/09/07 08:02:09;;;;;;;5.33;1.60;;;23.30;99.90;;;;;;1884282;75;21108;-74
2022/09/07 08:05:01;;;;;;;5.22;1.77;;;23.40;99.90;;;;;;1894399;75;21144;-74
2022/09/07 08:07:52;;;;;;;4.12;1.57;;;23.60;99.90;;;;;;1891629;75;21108;-73
2022/09/07 08:10:46;;;;;;;4.00;1.95;;;23.60;99.90;;;;;;1886514;73;21113;-84
2022/09/07 08:13:37;;;;;;;10.40;4.17;;;23.60;99.90;;;;;;1898721;75;21534;-75
2022/09/07 08:16:28;;;;;;;6.62;1.50;;;23.50;99.90;;;;;;1894723;75;21099;-75
2022/09/07 08:19:20;;;;;;;4.00;1.40;;;23.40;99.90;;;;;;1891463;73;21181;-75
2022/09/07 08:22:11;;;;;;;4.80;1.10;;;23.40;99.90;;;;;;1905224;75;21083;-76
2022/09/07 08:25:03;;;;;;;3.80;1.05;;;23.40;99.90;;;;;;1900254;75;21110;-75
2022/09/07 08:27:54;;;;;;;3.80;1.27;;;23.50;99.90;;;;;;1905095;75;21069;-75
2022/09/07 08:30:46;;;;;;;4.60;1.85;;;23.50;99.90;;;;;;1924301;73;21245;-75
2022/09/07 08:33:38;;;;;;;6.55;1.85;;;23.60;99.90;;;;;;1890759;75;21153;-75
2022/09/07 08:36:31;;;;;;;3.92;1.50;;;23.70;99.90;;;;;;1901129;75;21502;-75
2022/09/07 08:39:22;;;;;;;3.33;1.37;;;23.80;99.90;;;;;;1895625;75;21104;-84
2022/09/07 08:42:24;;;;;;;10.80;6.80;;;23.80;99.90;;;;;;1842898;77;21055;-86
2022/09/07 08:45:19;;;;;;;4.42;1.52;;;23.80;99.90;;;;;;1831448;77;21150;-73
2022/09/07 08:48:14;;;;;;;4.08;1.30;;;23.90;99.90;;;;;;1841568;77;21122;-74
2022/09/07 08:51:11;;;;;;;5.60;1.32;;;23.90;99.90;;;;;;1831425;77;21138;-74
2022/09/07 08:54:03;;;;;;;4.58;2.10;;;24.00;99.90;;;;;;1834616;77;21133;-73
2022/09/07 08:56:57;;;;;;;4.15;1.62;;;24.10;99.90;;;;;;1898161;74;21143;-74
2022/09/07 08:59:54;;;;;;;4.40;1.82;;;24.20;99.90;;;;;;1921259;74;21103;-73
2022/09/07 09:02:45;;;;;;;3.70;1.85;;;24.30;99.90;;;;;;1883566;75;21158;-73
2022/09/07 09:05:42;;;;;;;6.78;1.82;;;24.40;99.90;;;;;;1900224;75;21506;-70
2022/09/07 09:08:41;;;;;;;4.72;2.20;;;24.50;99.90;;;;;;1882221;74;21514;-70
2022/09/07 09:11:39;;;;;;;4.47;1.50;;;24.50;99.90;;;;;;1897537;75;21152;-70
2022/09/07 09:14:34;;;;;;;3.65;1.25;;;24.60;99.90;;;;;;1905988;75;21196;-70
2022/09/07 09:17:29;;;;;;;2.83;1.40;;;24.60;99.90;;;;;;1905835;75;21175;-70
2022/09/07 09:20:25;;;;;;;5.92;3.40;;;24.50;99.90;;;;;;1904614;74;21138;-70
2022/09/07 09:23:19;;;;;;;5.22;1.70;;;24.50;99.90;;;;;;1884113;76;21138;-70
2022/09/07 09:26:14;;;;;;;4.15;1.90;;;24.60;99.90;;;;;;1893913;75;21138;-70
2022/09/07 09:29:16;;;;;;;5.28;1.70;;;24.60;99.90;;;;;;1895724;74;21164;-70
2022/09/07 09:32:34;;;;;;;5.83;1.32;;;24.70;99.90;;;;;;1927073;73;21149;-70
2022/09/07 09:35:29;;;;;;;3.62;1.45;;;24.80;99.90;;;;;;1890858;75;21067;-70
2022/09/07 09:38:35;;;;;;;2.47;1.25;;;24.90;99.90;;;;;;1904447;75;21112;-86
2022/09/07 09:41:39;;;;;;;2.20;1.00;;;25.00;99.90;;;;;;1904555;75;21177;-73
2022/09/07 09:44:37;;;;;;;4.60;1.25;;;25.10;99.90;;;;;;1928046;73;21105;-75
2022/09/07 09:47:31;;;;;;;2.85;1.37;;;25.20;99.90;;;;;;1884826;75;21063;-75
2022/09/07 09:50:26;;;;;;;4.50;0.95;;;25.30;99.90;;;;;;1895867;75;21106;-75
2022/09/07 09:53:28;;;;;;;1.70;1.10;;;25.40;99.90;;;;;;1901595;73;21210;-75
2022/09/07 09:56:21;;;;;;;3.10;1.15;;;25.40;99.90;;;;;;1894785;75;21126;-75
2022/09/07 09:59:21;;;;;;;2.50;1.00;;;25.40;99.90;;;;;;1870869;75;21197;-74
2022/09/07 10:02:30;;;;;;;1.52;1.00;;;25.50;99.90;;;;;;1871980;77;21075;-75
2022/09/07 10:05:30;;;;;;;1.60;0.80;;;25.50;99.90;;;;;;1885941;75;21064;-74
2022/09/07 10:08:25;;;;;;;2.67;1.12;;;25.50;99.90;;;;;;1884285;75;21047;-73
2022/09/07 10:11:16;;;;;;;1.37;0.80;;;25.60;99.90;;;;;;1883566;75;21106;-74
2022/09/07 10:14:16;;;;;;;2.42;0.95;;;25.60;99.90;;;;;;1885374;75;21184;-75
2022/09/07 10:17:16;;;;;;;2.65;0.80;;;25.70;99.90;;;;;;1897608;75;21137;-74
2022/09/07 10:20:29;;;;;;;2.62;0.78;;;25.80;99.90;;;;;;1899874;75;21118;-75
2022/09/07 10:23:29;;;;;;;2.42;0.90;;;25.90;99.90;;;;;;1914734;75;21110;-75
2022/09/07 10:26:30;;;;;;;2.42;0.75;;;26.00;99.90;;;;;;1895896;75;21052;-74
2022/09/07 10:29:28;;;;;;;2.75;1.02;;;26.00;99.90;;;;;;1897297;75;21154;-74
2022/09/07 10:32:26;;;;;;;5.92;4.00;;;26.00;99.90;;;;;;1889175;75;21047;-83
2022/09/07 10:35:24;;;;;;;2.70;1.00;;;26.10;99.90;;;;;;1884151;75;21068;-71
2022/09/07 10:38:18;;;;;;;1.62;0.70;;;26.30;99.90;;;;;;1903557;75;21052;-71
2022/09/07 10:41:13;;;;;;;2.65;1.00;;;26.40;99.90;;;;;;1899676;75;21146;-71
2022/09/07 10:44:08;;;;;;;2.65;0.88;;;26.50;99.90;;;;;;1897954;75;21621;-70
2022/09/07 10:47:04;;;;;;;6.17;1.10;;;26.70;99.90;;;;;;1906011;75;21114;-71
2022/09/07 10:49:58;;;;;;;2.92;0.98;;;26.60;99.90;;;;;;1882142;75;21134;-75
2022/09/07 10:55:36;;;;;;;2.10;0.80;;;26.90;99.90;;;;;;1955603;72;22168;-71
2022/09/07 10:58:31;;;;;;;1.77;0.75;;;26.90;99.90;;;;;;1885311;74;21545;-71
2022/09/07 11:01:27;;;;;;;2.70;1.20;;;27.00;99.90;;;;;;1906696;75;21131;-71
2022/09/07 11:04:38;;;;;;;5.10;1.12;;;27.10;99.90;;;;;;1886823;73;21160;-71
2022/09/07 11:07:39;;;;;;;4.67;1.05;;;27.10;99.90;;;;;;1895378;75;21059;-71
2022/09/07 11:10:38;;;;;;;3.83;1.27;;;26.90;99.90;;;;;;1898478;75;21043;-71
2022/09/07 11:13:36;;;;;;;3.47;1.15;;;27.10;99.90;;;;;;1899917;73;21097;-71
2022/09/07 11:16:32;;;;;;;6.72;1.40;;;27.20;99.90;;;;;;1901350;73;21203;-71
2022/09/07 11:19:28;;;;;;;5.15;1.47;;;27.40;99.90;;;;;;1895056;75;21160;-71
2022/09/07 11:22:27;;;;;;;17.55;15.28;;;27.30;99.90;;;;;;1895580;75;21078;-82
2022/09/07 11:25:19;;;;;;;;;;;27.30;99.90;;;;;;1916945;73;21155;-70
2022/09/07 11:28:17;;;;;;;4.53;1.40;;;27.30;99.90;;;;;;1901811;75;20171;-71
2022/09/07 11:31:13;;;;;;;4.53;1.27;;;27.40;99.90;;;;;;1886619;75;21066;-72
2022/09/07 11:34:10;;;;;;;5.53;1.30;;;27.40;99.90;;;;;;1891107;75;21078;-70
2022/09/07 11:37:06;;;;;;;4.47;1.20;;;27.60;99.90;;;;;;1904644;75;21171;-70
2022/09/07 11:40:03;;;;;;;3.72;1.17;;;27.50;99.90;;;;;;1907868;75;21102;-70
2022/09/07 11:42:59;;;;;;;3.55;1.42;;;27.80;99.90;;;;;;1906991;75;21141;-71
2022/09/07 11:45:53;;;;;;;4.60;1.37;;;27.80;99.90;;;;;;1892004;75;21152;-71
2022/09/07 11:48:52;;;;;;;7.42;1.90;;;28.00;99.90;;;;;;1910682;75;21164;-71
2022/09/07 11:51:53;;;;;;;7.72;1.52;;;28.10;99.90;;;;;;1910218;75;21179;-71
2022/09/07 11:54:49;;;;;;;5.10;1.27;;;28.20;99.90;;;;;;1900328;74;21066;-71
2022/09/07 11:57:46;;;;;;;4.97;1.40;;;28.30;99.90;;;;;;1913595;74;21110;-72
2022/09/07 12:03:39;;;;;;;5.67;1.60;;;28.30;99.90;;;;;;1949860;72;22168;-85
2022/09/07 12:07:06;;;;;;;4.22;1.32;;;28.10;99.90;;;;;;1917093;74;21070;-74
2022/09/07 12:10:18;;;;;;;4.70;1.70;;;28.20;99.90;;;;;;1916759;75;21212;-75
2022/09/07 12:13:33;;;;;;;4.47;1.27;;;28.40;99.90;;;;;;1916663;75;21093;-72
2022/09/07 12:16:41;;;;;;;7.72;1.62;;;28.30;99.90;;;;;;1916878;73;21188;-78
2022/09/07 12:19:32;;;;;;;6.50;1.67;;;28.10;99.90;;;;;;1916139;75;21153;-78
2022/09/07 12:22:24;;;;;;;7.17;1.80;;;28.10;99.90;;;;;;1925756;73;21470;-81
2022/09/07 12:25:28;;;;;;;5.28;1.20;;;27.90;99.90;;;;;;1917115;73;21181;-80
2022/09/07 12:28:40;;;;;;;8.00;2.12;;;27.70;99.90;;;;;;1855888;76;21101;-81
2022/09/07 12:37:43;;;;;;;7.35;2.02;;;27.80;99.90;;;;;;1944565;72;22071;-77
2022/09/07 12:40:51;;;;;;;5.67;1.80;;;27.80;99.90;;;;;;1908625;75;21051;-77
2022/09/07 12:44:07;;;;;;;8.58;2.17;;;27.90;99.90;;;;;;1904772;75;21086;-80
2022/09/07 12:47:09;;;;;;;7.05;1.57;;;27.80;99.90;;;;;;1898857;73;21088;-79
2022/09/07 12:50:20;;;;;;;9.73;1.87;;;27.80;99.90;;;;;;1894829;75;21192;-86
2022/09/07 12:53:30;;;;;;;7.70;1.80;;;27.50;99.90;;;;;;1907498;75;21554;-90
2022/09/07 12:56:30;;;;;;;9.53;2.02;;;27.40;99.90;;;;;;1898941;75;21482;-84
2022/09/07 13:03:13;;;;;;;5.80;1.75;;;27.40;99.90;;;;;;1949601;72;22257;-74
2022/09/07 13:06:27;;;;;;;11.38;2.17;;;27.50;99.90;;;;;;1913707;74;21116;-75
2022/09/07 13:12:29;;;;;;;6.75;2.00;;;27.50;99.90;;;;;;1936517;72;22172;-72
2022/09/07 13:15:42;;;;;;;8.83;2.33;;;27.40;99.90;;;;;;1902190;75;21128;-70
2022/09/07 13:18:45;;;;;;;6.87;1.50;;;27.50;99.90;;;;;;1901873;75;21163;-70
2022/09/07 13:21:47;;;;;;;8.05;1.98;;;27.50;99.90;;;;;;1886931;75;21039;-70
2022/09/07 13:24:39;;;;;;;7.83;1.85;;;27.40;99.90;;;;;;1895518;75;21043;-70
2022/09/07 13:27:52;;;;;;;9.30;2.20;;;27.30;99.90;;;;;;1895238;75;21482;-70
2022/09/07 13:30:52;;;;;;;4.85;1.62;;;27.40;99.90;;;;;;1917620;75;21075;-70
2022/09/07 13:33:49;;;;;;;7.08;2.30;;;27.40;99.90;;;;;;1895351;75;21167;-70
2022/09/07 13:36:45;;;;;;;10.10;2.40;;;27.50;99.90;;;;;;1897149;75;21146;-70
2022/09/07 13:39:41;;;;;;;7.85;1.80;;;27.40;99.90;;;;;;1864995;76;21047;-85
2022/09/07 13:42:35;;;;;;;5.78;1.90;;;27.10;99.90;;;;;;1896902;75;21058;-84
2022/09/07 13:45:33;;;;;;;9.60;1.95;;;26.90;99.90;;;;;;1909680;75;21121;-89
2022/09/07 13:48:28;;;;;;;7.92;1.70;;;27.00;99.90;;;;;;1887887;75;21248;-86
2022/09/07 13:51:23;;;;;;;8.95;2.02;;;26.90;99.90;;;;;;1906618;75;21055;-86
2022/09/07 13:57:03;;;;;;;5.95;1.62;;;26.90;99.90;;;;;;1957086;72;22165;-87
2022/09/07 13:59:55;;;;;;;9.88;2.08;;;27.00;99.90;;;;;;1892279;74;21122;-88
2022/09/07 14:02:51;;;;;;;3.22;1.85;;;27.00;99.90;;;;;;1884923;76;21110;-90
2022/09/07 14:05:44;;;;;;;3.98;1.60;;;27.00;99.90;;;;;;1884722;76;21183;-87
2022/09/07 14:08:35;;;;;;;6.67;1.92;;;27.10;99.90;;;;;;1897287;75;21636;-77
2022/09/07 14:11:31;;;;;;;7.97;2.30;;;27.10;99.90;;;;;;1895438;75;21172;-81
2022/09/07 14:14:24;;;;;;;7.53;2.27;;;27.30;99.90;;;;;;1895852;75;21100;-81
2022/09/07 14:17:18;;;;;;;5.60;1.90;;;27.30;99.90;;;;;;1897770;75;21055;-74
2022/09/07 14:20:18;;;;;;;6.95;2.22;;;27.40;99.90;;;;;;1884611;76;21121;-76
2022/09/07 14:23:22;;;;;;;5.70;2.05;;;27.40;99.90;;;;;;1896932;75;21054;-76
2022/09/07 14:26:19;;;;;;;6.75;2.10;;;27.40;99.90;;;;;;1894974;75;21051;-75
2022/09/07 14:29:23;;;;;;;8.45;2.67;;;27.40;99.90;;;;;;1890181;75;21191;-70
2022/09/07 14:32:17;;;;;;;6.97;2.00;;;27.30;99.90;;;;;;1906874;75;21138;-70
2022/09/07 14:35:12;;;;;;;8.08;2.17;;;27.20;99.90;;;;;;1914482;73;21143;-70
2022/09/07 14:38:10;;;;;;;7.72;1.95;;;27.10;99.90;;;;;;1884292;75;21088;-70
2022/09/07 14:41:13;;;;;;;7.62;2.02;;;26.90;99.90;;;;;;1895545;75;21134;-76
2022/09/07 14:44:49;;;;;;;7.30;2.13;;;26.70;99.90;;;;;;1907612;75;21084;-79
2022/09/07 14:47:42;;;;;;;8.60;2.20;;;26.50;99.90;;;;;;1900660;75;21299;-84
2022/09/07 14:50:37;;;;;;;9.85;2.10;;;26.50;99.90;;;;;;1916917;75;21164;-78
2022/09/07 14:53:31;;;;;;;21.12;15.00;;;26.50;99.90;;;;;;1895440;75;21175;-81
2022/09/07 14:56:30;;;;;;;83.75;75.08;;;26.50;99.90;;;;;;1915204;74;21079;-87
2022/09/07 14:59:30;;;;;;;7.60;2.22;;;26.40;99.90;;;;;;1907730;74;21057;-84
2022/09/07 15:05:28;;;;;;;8.48;2.05;;;26.30;99.90;;;;;;1944292;72;22129;-76
2022/09/07 15:08:37;;;;;;;6.45;2.10;;;26.20;99.90;;;;;;1936544;73;21173;-78
2022/09/07 15:11:31;;;;;;;11.35;4.42;;;26.10;99.90;;;;;;1924101;73;21051;-87
2022/09/07 15:14:23;;;;;;;8.15;2.00;;;26.10;99.90;;;;;;1922754;73;21572;-73
2022/09/07 15:17:24;;;;;;;7.33;2.15;;;26.20;99.90;;;;;;1919578;73;21169;-75
2022/09/07 15:20:39;;;;;;;5.75;1.90;;;26.20;99.90;;;;;;1917201;75;21070;-78
2022/09/07 15:23:30;;;;;;;15.40;2.62;;;26.20;99.90;;;;;;1917625;75;21135;-76
2022/09/07 15:26:23;;;;;;;9.45;2.45;;;26.20;99.90;;;;;;1917362;75;21247;-75
2022/09/07 15:32:09;;;;;;;5.95;2.27;;;26.10;99.90;;;;;;1972801;72;22653;-76
2022/09/07 15:35:07;;;;;;;11.15;2.05;;;26.00;99.90;;;;;;1919661;73;21078;-77
2022/09/07 15:38:01;;;;;;;7.05;2.20;;;25.90;99.90;;;;;;1918265;74;21786;-79
2022/09/07 15:41:03;;;;;;;8.25;2.33;;;25.90;99.90;;;;;;1903630;75;21067;-76
2022/09/07 15:44:00;;;;;;;9.63;2.50;;;25.90;99.90;;;;;;1904439;75;22201;-81
2022/09/07 15:46:55;;;;;;;8.88;2.45;;;25.80;99.90;;;;;;1905284;75;21631;-78
2022/09/07 15:49:51;;;;;;;6.87;2.45;;;25.70;99.90;;;;;;1904868;75;21126;-83
2022/09/07 15:52:44;;;;;;;6.40;2.20;;;25.60;99.90;;;;;;1904825;75;21097;-78
2022/09/07 15:55:37;;;;;;;12.45;6.90;;;25.60;99.90;;;;;;1905010;75;21088;-91